createdAt,value
2022-08-03T00:03:35.150Z,49.78
2022-08-03T00:08:40.107Z,49.89
2022-08-03T00:13:42.377Z,49.84
2022-08-03T00:18:44.411Z,50.06
2022-08-03T00:23:51.804Z,50.40
2022-08-03T00:28:54.972Z,50.59
2022-08-03T00:33:58.936Z,50.83
2022-08-03T00:39:01.852Z,50.46
2022-08-03T00:44:04.165Z,50.53
2022-08-03T00:49:06.148Z,50.76
2022-08-03T00:54:08.103Z,51.10
2022-08-03T00:59:14.749Z,51.08
2022-08-03T01:04:16.852Z,51.04
2022-08-03T01:09:42.933Z,51.58
2022-08-03T01:15:00.531Z,51.59
2022-08-03T01:20:12.351Z,51.42
2022-08-03T01:25:48.214Z,51.61
2022-08-03T01:31:02.309Z,51.94
2022-08-03T01:36:08.017Z,51.93
2022-08-03T01:41:19.057Z,52.21
2022-08-03T01:46:23.137Z,51.96
2022-08-03T01:51:56.108Z,52.30
2022-08-03T01:56:56.979Z,52.11
2022-08-03T02:02:32.015Z,52.40
2022-08-03T02:07:24.861Z,52.55
2022-08-03T02:12:31.481Z,52.48
2022-08-03T02:17:38.524Z,52.58
2022-08-03T02:22:44.864Z,52.96
2022-08-03T02:27:55.041Z,52.78
2022-08-03T02:32:59.500Z,53.28
2022-08-03T02:38:04.622Z,53.12
2022-08-03T02:43:29.891Z,53.18
2022-08-03T02:48:37.449Z,53.29
2022-08-03T02:53:41.237Z,53.79
2022-08-03T02:58:46.065Z,53.70
2022-08-03T03:03:50.094Z,53.91
2022-08-03T03:08:59.453Z,53.90
2022-08-03T03:14:03.074Z,53.91
2022-08-03T03:19:08.825Z,53.89
2022-08-03T03:24:11.851Z,54.27
2022-08-03T03:29:13.873Z,54.42
2022-08-03T03:34:16.643Z,54.57
2022-08-03T03:39:18.695Z,54.54
2022-08-03T03:44:20.911Z,54.35
2022-08-03T03:49:23.139Z,54.39
2022-08-03T03:54:25.443Z,54.74
2022-08-03T03:59:31.234Z,54.57
2022-08-03T04:04:57.032Z,55.07
2022-08-03T04:10:17.829Z,54.87
2022-08-03T04:15:24.278Z,54.93
2022-08-03T04:20:32.885Z,55.19
2022-08-03T04:25:37.597Z,55.45
2022-08-03T04:30:48.066Z,55.29
2022-08-03T04:36:01.758Z,55.50
2022-08-03T04:41:12.436Z,55.37
2022-08-03T04:46:15.669Z,55.46
2022-08-03T04:51:18.004Z,55.50
2022-08-03T04:56:20.207Z,55.62
2022-08-03T05:01:23.269Z,55.60
2022-08-03T05:06:25.424Z,55.95
2022-08-03T05:11:27.802Z,56.08
2022-08-03T05:16:29.830Z,56.11
2022-08-03T05:21:50.347Z,56.62
2022-08-03T05:26:54.298Z,56.46
2022-08-03T05:31:56.750Z,56.77
2022-08-03T05:36:58.769Z,56.69
2022-08-03T05:42:01.055Z,56.42
2022-08-03T05:47:02.835Z,56.52
2022-08-03T05:52:14.750Z,56.39
2022-08-03T05:57:18.119Z,56.38
2022-08-03T06:02:20.675Z,56.43
2022-08-03T06:07:22.849Z,56.17
2022-08-03T06:12:25.109Z,56.14
2022-08-03T06:17:27.182Z,56.22
2022-08-03T06:22:47.686Z,55.94
2022-08-03T06:27:56.860Z,55.85
2022-08-03T06:32:58.686Z,55.66
2022-08-03T06:38:00.930Z,55.23
2022-08-03T06:43:04.225Z,55.38
2022-08-03T06:48:06.768Z,54.66
2022-08-03T06:53:19.749Z,54.59
2022-08-03T06:58:23.769Z,54.05
2022-08-03T07:03:25.816Z,53.61
2022-08-03T07:08:33.808Z,53.59
2022-08-03T07:13:36.871Z,53.33
2022-08-03T07:18:42.344Z,53.08
2022-08-03T07:23:44.197Z,52.59
2022-08-03T07:28:46.522Z,52.35
2022-08-03T07:33:48.619Z,52.07
2022-08-03T07:38:51.126Z,51.75
2022-08-03T07:43:53.208Z,52.08
2022-08-03T07:48:55.419Z,51.53
2022-08-03T07:53:58.135Z,51.17
2022-08-03T07:59:00.702Z,51.25
2022-08-03T08:04:02.988Z,50.83
2022-08-03T08:09:05.364Z,50.29
2022-08-03T08:14:08.310Z,50.09
2022-08-03T08:19:10.337Z,49.71
2022-08-03T08:24:18.063Z,49.49
2022-08-03T08:29:23.303Z,49.17
2022-08-03T08:34:25.395Z,48.82
2022-08-03T08:39:27.518Z,48.51
2022-08-03T08:44:30.306Z,48.20
2022-08-03T08:49:36.058Z,47.93
2022-08-03T08:54:45.904Z,47.40
2022-08-03T08:59:49.715Z,47.16
2022-08-03T09:04:54.134Z,46.54
2022-08-03T09:10:11.163Z,46.27
2022-08-03T09:16:00.825Z,45.17
2022-08-03T09:21:30.527Z,45.23
2022-08-03T09:26:38.254Z,44.91
2022-08-03T09:31:43.467Z,44.80
2022-08-03T09:36:48.373Z,44.58
2022-08-03T09:42:15.318Z,43.62
2022-08-03T09:47:29.659Z,43.52
2022-08-03T09:52:38.954Z,43.38
2022-08-03T09:57:50.639Z,43.36
2022-08-03T10:03:05.548Z,42.73
2022-08-03T10:08:15.866Z,42.85
2022-08-03T10:13:19.217Z,42.65
2022-08-03T10:18:21.067Z,41.91
2022-08-03T10:23:25.019Z,41.79
2022-08-03T10:28:32.966Z,41.58
2022-08-03T10:33:51.126Z,40.96
2022-08-03T10:38:57.162Z,40.71
2022-08-03T10:44:05.815Z,40.25
2022-08-03T10:49:08.740Z,39.89
2022-08-03T10:54:58.194Z,39.45
2022-08-03T11:00:03.156Z,39.28
2022-08-03T11:05:30.374Z,38.91
2022-08-03T11:10:32.543Z,39.51
2022-08-03T11:15:36.290Z,38.73
2022-08-03T11:20:56.054Z,38.23
2022-08-03T11:26:27.779Z,37.78
2022-08-03T11:31:52.663Z,37.52
2022-08-03T11:37:25.372Z,37.32
2022-08-03T11:42:33.450Z,37.19
2022-08-03T11:47:50.156Z,37.12
2022-08-03T11:52:55.021Z,36.95
2022-08-03T11:59:02.706Z,36.76
2022-08-03T12:03:22.344Z,36.37
2022-08-03T12:08:27.049Z,35.76
2022-08-03T12:14:36.660Z,35.17
2022-08-03T12:19:07.152Z,34.89
2022-08-03T12:24:09.582Z,35.10
2022-08-03T12:29:23.298Z,34.73
2022-08-03T12:34:47.607Z,34.20
2022-08-03T12:40:02.449Z,34.51
2022-08-03T12:45:21.581Z,33.99
2022-08-03T12:50:25.527Z,34.21
2022-08-03T12:55:57.135Z,33.90
2022-08-03T13:00:57.075Z,33.46
2022-08-03T13:05:59.320Z,33.12
2022-08-03T13:11:57.899Z,30.67
2022-08-03T13:16:50.861Z,30.93
2022-08-03T13:22:04.092Z,30.49
2022-08-03T13:28:11.075Z,29.47
2022-08-03T13:32:30.531Z,28.79
2022-08-03T13:37:32.887Z,28.52
2022-08-03T13:42:36.715Z,28.18
2022-08-03T13:47:39.516Z,28.21
2022-08-03T13:52:41.614Z,27.62
2022-08-03T13:58:03.970Z,27.77
2022-08-03T14:03:13.215Z,27.69
2022-08-03T14:08:16.337Z,27.20
2022-08-03T14:13:18.449Z,27.07
2022-08-03T14:18:27.640Z,27.31
2022-08-03T14:23:31.869Z,27.34
2022-08-03T14:28:35.986Z,27.12
2022-08-03T14:33:38.656Z,27.04
2022-08-03T14:38:40.886Z,26.86
2022-08-03T14:44:02.023Z,27.06
2022-08-03T14:50:34.540Z,27.32
2022-08-03T14:54:30.998Z,27.77
2022-08-03T14:59:56.063Z,28.06
2022-08-03T15:04:55.275Z,28.08
2022-08-03T15:09:57.652Z,28.05
2022-08-03T15:14:59.942Z,27.98
2022-08-03T15:20:22.495Z,27.95
2022-08-03T15:26:31.864Z,28.03
2022-08-03T15:30:46.480Z,27.92
2022-08-03T15:35:49.925Z,28.04
2022-08-03T15:40:54.859Z,28.17
2022-08-03T15:51:20.315Z,28.17
2022-08-03T15:56:22.180Z,28.34
2022-08-03T16:01:25.550Z,27.97
2022-08-03T16:06:29.714Z,27.89
2022-08-03T16:11:37.827Z,27.74
2022-08-03T16:16:41.230Z,28.05
2022-08-03T16:21:48.908Z,28.14
2022-08-03T16:26:52.887Z,28.03
2022-08-03T16:31:54.936Z,28.10
2022-08-03T16:36:56.787Z,28.27
2022-08-03T16:42:01.136Z,28.42
2022-08-03T16:47:04.042Z,28.50
2022-08-03T16:52:07.178Z,28.56
2022-08-03T16:57:09.973Z,28.54
2022-08-03T17:02:26.129Z,28.45
2022-08-03T17:07:30.297Z,28.51
2022-08-03T17:12:32.662Z,28.82
2022-08-03T17:17:37.598Z,28.67
2022-08-03T17:23:04.049Z,28.77
2022-08-03T17:28:48.572Z,28.92
2022-08-03T17:33:38.518Z,29.13
2022-08-03T17:38:41.916Z,29.29
2022-08-03T17:44:16.046Z,29.37
2022-08-03T17:49:24.655Z,29.50
2022-08-03T17:55:55.276Z,30.09
2022-08-03T18:00:32.836Z,30.17
2022-08-03T18:06:11.057Z,30.87
2022-08-03T18:11:16.840Z,31.70
2022-08-03T18:16:46.314Z,31.95
2022-08-03T18:22:03.740Z,32.13
2022-08-03T18:27:10.826Z,32.44
2022-08-03T18:37:51.994Z,32.24
2022-08-03T18:42:54.882Z,32.52
2022-08-03T18:48:11.216Z,32.84
2022-08-03T18:54:02.493Z,32.96
2022-08-03T18:59:02.585Z,33.35
2022-08-03T19:04:19.236Z,33.42
2022-08-03T19:09:48.925Z,33.68
2022-08-03T19:15:00.486Z,33.90
2022-08-03T19:20:06.509Z,34.16
2022-08-03T19:25:12.155Z,34.36
2022-08-03T19:30:33.476Z,34.51
2022-08-03T19:35:52.198Z,34.95
2022-08-03T19:41:02.670Z,35.11
2022-08-03T19:46:14.160Z,35.45
2022-08-03T19:51:16.546Z,35.41
2022-08-03T19:56:24.207Z,35.46
2022-08-03T20:01:28.231Z,35.75
2022-08-03T20:06:31.343Z,36.25
2022-08-03T20:11:33.948Z,36.31
2022-08-03T20:16:48.975Z,36.97
2022-08-03T20:21:54.600Z,37.01
2022-08-03T20:27:01.483Z,37.38
2022-08-03T20:32:03.458Z,37.31
2022-08-03T20:37:07.485Z,37.81
2022-08-03T20:42:14.137Z,37.81
2022-08-03T20:47:24.251Z,38.08
2022-08-03T20:52:26.358Z,38.46
2022-08-03T20:57:28.812Z,38.84
2022-08-03T21:02:35.437Z,38.93
2022-08-03T21:13:04.092Z,32.37
2022-08-03T21:13:08.100Z,39.20
2022-08-03T21:18:25.514Z,39.81
2022-08-03T21:23:40.296Z,39.82
2022-08-03T21:28:52.862Z,40.36
2022-08-03T21:34:01.267Z,40.54
2022-08-03T21:39:05.961Z,40.41
2022-08-03T21:44:08.677Z,40.57
2022-08-03T21:50:07.931Z,40.66
2022-08-03T21:54:43.876Z,40.95
2022-08-03T21:59:53.919Z,41.45
2022-08-03T22:04:57.297Z,41.26
2022-08-03T22:10:01.797Z,41.12
2022-08-03T22:15:07.194Z,41.13
2022-08-03T22:20:14.376Z,40.76
2022-08-03T22:25:16.515Z,40.99
2022-08-03T22:30:19.667Z,40.99
2022-08-03T22:35:24.175Z,40.75
2022-08-03T22:40:28.127Z,41.06
2022-08-03T22:46:07.356Z,41.26
2022-08-03T22:50:51.920Z,41.10
2022-08-03T22:55:55.796Z,41.43
2022-08-03T23:01:26.389Z,41.52
2022-08-03T23:06:36.264Z,41.63
2022-08-03T23:11:43.059Z,41.60
2022-08-03T23:16:50.550Z,41.31
2022-08-03T23:22:03.968Z,41.40
2022-08-03T23:27:08.697Z,41.38
2022-08-03T23:32:13.159Z,41.18
2022-08-03T23:37:15.911Z,41.09
2022-08-03T23:42:19.592Z,41.49
2022-08-03T23:47:22.031Z,41.16
2022-08-03T23:52:51.892Z,41.21
2022-08-03T23:58:12.640Z,41.18
